MAPA DE AEROPUERTO

INFORMACIÓN METAR y TAF

METAR FOR LEMH
ADDS - METARS form results

(2138 UTC 31 March 2020)
Data provider http://aviationweather.gov/metar/data/
 
METAR text: LEMH 312130Z AUTO 09014KT CAVOK 13/10 Q1013
Conditions at: LEMH (MAHON/MENORCA IS, ES) observed 2130 UTC 31 March 2020
Temperature: 13.0°C (55°F)
Dewpoint: 10.0°C (50°F) [RH = 82%]
Pressure (altimeter): 29.91 inches Hg (1013.0 mb)
Winds: from the E (90 degrees) at 16 MPH (14 knots; 7.2 m/s)
Visibility: 6 or more miles (10+ km)
Ceiling: ceiling and visibility are OK
Clouds: unknown
Weather: no significant weather observed at this time

METAR text: LEMH 312100Z AUTO 08014KT CAVOK 13/10 Q1013
Conditions at: LEMH (MAHON/MENORCA IS, ES) observed 2100 UTC 31 March 2020
Temperature: 13.0°C (55°F)
Dewpoint: 10.0°C (50°F) [RH = 82%]
Pressure (altimeter): 29.91 inches Hg (1013.0 mb)
Winds: from the E (80 degrees) at 16 MPH (14 knots; 7.2 m/s)
Visibility: 6 or more miles (10+ km)
Ceiling: ceiling and visibility are OK
Clouds: unknown
Weather: no significant weather observed at this time

Forecast for: LEMH (MAHON/MENORCA IS, ES)
Text: TAF LEMH 312000Z 3121/0121 10015KT 9999 FEW010 TX18/0112Z TN10/0106Z
Forecast period: 2100 UTC 31 March 2020 to 1000 UTC 01 April 2020
Forecast type: FROM: standard forecast or significant change
Winds: from the E (100 degrees) at 17 MPH (15 knots; 7.7 m/s)
Visibility: 6 or more miles 10+ km)
Ceiling: at least 12,000 feet AGL
Clouds: few clouds at 1000 feet AGL
Weather: no significant weather forecast for this period
Text: BECMG 0110/0112 18012KT
Forecast period: 1000 to 2100 UTC 01 April 2020
Forecast type: BECOMING: Conditions expected to become as follows by 1200 UTC 01 April 2020
Winds: from the S (180 degrees) at 14 MPH (12 knots; 6.2 m/s)
Visibility: 6 or more miles 10+ km)
Ceiling: at least 12,000 feet AGL
Clouds: few clouds at 1000 feet AGL
Weather: no significant weather forecast for this period
Text: TEMPO 0110/0121 4000 SHRA FEW010TCU BKN020
Forecast period: 1000 to 2100 UTC 01 April 2020
Forecast type: TEMPORARY: The following changes expected for less than half the time period
Visibility: 2.49 miles (4.01 km)
Ceiling: 2000 feet AGL
Clouds: few clouds at 1000 feet AGL
broken clouds at 2000 feet AGL
Weather: SHRA  (rain showers)
Text: PROB40
Forecast period: 1500 to 1900 UTC 01 April 2020
Forecast type: TEMPORARY: The following changes expected for less than half the time period
Visibility: 1.24 miles (2.00 km)
Ceiling: 2000 feet AGL
Clouds: few clouds at 1000 feet AGL
broken clouds at 2000 feet AGL
Weather: TSRA  (rain associated with thunderstorm(s))